China Township, Michigan
Current Conditions -  °F | °C
As of 12:17 PM on Sunday 21 Dec 2014 (Local Time) from KPHN Reporting Station
Overcast Overcast  
Wind Chill: 28°   Ceiling: 3700
Heat Index: 34°   Visibility: 10mi
Dew Point: 25°   Wind: 7mph
Humidity: 70%   Direction: 170°S
Pressure: 30.29"   Gusts: NA
Location:  42.7808°N, 82.6288°W
Report Text: KPHN 211717Z AUTO 17006KT 10SM OVC037 01/M04 A3029 RMK AO2
Loading
Personal Weather Stations






























Interactive Weather Map New forecast layout! Learn more

10-Day Weather Forecast

Advertisements
Track Severe Weather on mobile